« Back
NWS Peachtree City, Ga » Text Product » MCN Terminal Aerodrome Forecast


Printer-friendly Version
Current Version              Previous Versions:   1  2  3  4  5  6  7  8  9  

Terminal Aerodrome Forecast

117
FTUS42 KFFC 122338
TAFMCN
TAF
KMCN 122338Z 1300/1324 30012G20KT P6SM FEW150
     FM130300 32014G22KT P6SM SKC
     FM131800 33012KT P6SM SKC
     FM132300 33009KT P6SM FEW250=



USA.gov is the U.S. government's official web portal to all federal, state and local government web resources and services.